sensor_id;sensor_type;location;lat;lon;timestamp;P1;durP1;ratioP1;P2;durP2;ratioP2
1350;SDS011;669;50.206;9.998;2023-10-08T00:00:46;4.73;;;3.80;;
1350;SDS011;669;50.206;9.998;2023-10-08T00:03:18;6.60;;;3.93;;
1350;SDS011;669;50.206;9.998;2023-10-08T00:05:47;8.33;;;3.53;;
1350;SDS011;669;50.206;9.998;2023-10-08T00:08:17;5.47;;;3.27;;
1350;SDS011;669;50.206;9.998;2023-10-08T00:10:45;3.77;;;3.20;;
1350;SDS011;669;50.206;9.998;2023-10-08T00:13:14;3.90;;;3.50;;
1350;SDS011;669;50.206;9.998;2023-10-08T00:15:43;3.60;;;2.87;;
1350;SDS011;669;50.206;9.998;2023-10-08T00:18:21;9.60;;;3.90;;
1350;SDS011;669;50.206;9.998;2023-10-08T00:20:50;8.33;;;4.10;;
1350;SDS011;669;50.206;9.998;2023-10-08T00:23:25;5.23;;;3.47;;
1350;SDS011;669;50.206;9.998;2023-10-08T00:25:53;4.70;;;3.37;;
1350;SDS011;669;50.206;9.998;2023-10-08T00:28:21;8.23;;;3.10;;
1350;SDS011;669;50.206;9.998;2023-10-08T00:30:50;7.20;;;3.77;;
1350;SDS011;669;50.206;9.998;2023-10-08T00:33:22;6.83;;;3.87;;
1350;SDS011;669;50.206;9.998;2023-10-08T00:35:51;6.93;;;3.93;;
1350;SDS011;669;50.206;9.998;2023-10-08T00:38:19;6.77;;;3.83;;
1350;SDS011;669;50.206;9.998;2023-10-08T00:40:47;11.77;;;4.33;;
1350;SDS011;669;50.206;9.998;2023-10-08T00:43:30;7.47;;;3.50;;
1350;SDS011;669;50.206;9.998;2023-10-08T00:45:59;7.37;;;3.40;;
1350;SDS011;669;50.206;9.998;2023-10-08T00:48:29;10.93;;;4.10;;
1350;SDS011;669;50.206;9.998;2023-10-08T00:51:02;7.47;;;4.30;;
1350;SDS011;669;50.206;9.998;2023-10-08T00:53:43;5.40;;;3.40;;
1350;SDS011;669;50.206;9.998;2023-10-08T00:56:12;7.83;;;3.67;;
1350;SDS011;669;50.206;9.998;2023-10-08T00:58:45;7.40;;;4.00;;
1350;SDS011;669;50.206;9.998;2023-10-08T01:01:17;7.07;;;3.80;;
1350;SDS011;669;50.206;9.998;2023-10-08T01:03:49;6.10;;;3.67;;
1350;SDS011;669;50.206;9.998;2023-10-08T01:06:17;6.20;;;3.80;;
1350;SDS011;669;50.206;9.998;2023-10-08T01:08:46;4.90;;;3.00;;
1350;SDS011;669;50.206;9.998;2023-10-08T01:11:19;6.53;;;3.97;;
1350;SDS011;669;50.206;9.998;2023-10-08T01:13:58;7.13;;;3.53;;
1350;SDS011;669;50.206;9.998;2023-10-08T01:16:27;8.83;;;3.27;;
1350;SDS011;669;50.206;9.998;2023-10-08T01:19:00;4.40;;;3.10;;
1350;SDS011;669;50.206;9.998;2023-10-08T01:21:29;7.63;;;3.37;;
1350;SDS011;669;50.206;9.998;2023-10-08T01:24:02;7.60;;;3.97;;
1350;SDS011;669;50.206;9.998;2023-10-08T01:26:32;4.60;;;3.10;;
1350;SDS011;669;50.206;9.998;2023-10-08T01:29:08;6.43;;;3.67;;
1350;SDS011;669;50.206;9.998;2023-10-08T01:31:38;6.93;;;3.20;;
1350;SDS011;669;50.206;9.998;2023-10-08T01:34:06;4.33;;;2.60;;
1350;SDS011;669;50.206;9.998;2023-10-08T01:36:34;5.63;;;4.20;;
1350;SDS011;669;50.206;9.998;2023-10-08T01:39:03;6.27;;;3.70;;
1350;SDS011;669;50.206;9.998;2023-10-08T01:41:33;3.90;;;3.50;;
1350;SDS011;669;50.206;9.998;2023-10-08T01:44:06;5.90;;;2.90;;
1350;SDS011;669;50.206;9.998;2023-10-08T01:46:35;4.80;;;3.30;;
1350;SDS011;669;50.206;9.998;2023-10-08T01:49:04;4.73;;;3.30;;
1350;SDS011;669;50.206;9.998;2023-10-08T01:51:39;3.20;;;2.90;;
1350;SDS011;669;50.206;9.998;2023-10-08T01:54:14;4.23;;;2.97;;
1350;SDS011;669;50.206;9.998;2023-10-08T01:56:44;3.90;;;3.30;;
1350;SDS011;669;50.206;9.998;2023-10-08T01:59:13;5.30;;;3.20;;
1350;SDS011;669;50.206;9.998;2023-10-08T02:01:42;3.63;;;3.10;;
1350;SDS011;669;50.206;9.998;2023-10-08T02:04:12;4.20;;;3.30;;
1350;SDS011;669;50.206;9.998;2023-10-08T02:06:43;3.47;;;3.07;;
1350;SDS011;669;50.206;9.998;2023-10-08T02:09:12;6.67;;;3.80;;
1350;SDS011;669;50.206;9.998;2023-10-08T02:11:44;6.33;;;3.30;;
1350;SDS011;669;50.206;9.998;2023-10-08T02:14:16;4.47;;;3.50;;
1350;SDS011;669;50.206;9.998;2023-10-08T02:16:45;7.73;;;4.30;;
1350;SDS011;669;50.206;9.998;2023-10-08T02:19:13;6.03;;;4.43;;
1350;SDS011;669;50.206;9.998;2023-10-08T02:21:45;5.93;;;4.33;;
1350;SDS011;669;50.206;9.998;2023-10-08T02:24:13;4.43;;;3.20;;
1350;SDS011;669;50.206;9.998;2023-10-08T02:26:41;6.20;;;3.87;;
1350;SDS011;669;50.206;9.998;2023-10-08T02:29:11;5.10;;;3.70;;
1350;SDS011;669;50.206;9.998;2023-10-08T02:31:40;5.10;;;3.83;;
1350;SDS011;669;50.206;9.998;2023-10-08T02:34:08;7.70;;;3.63;;
1350;SDS011;669;50.206;9.998;2023-10-08T02:36:39;4.00;;;3.60;;
1350;SDS011;669;50.206;9.998;2023-10-08T02:39:10;5.17;;;3.80;;
1350;SDS011;669;50.206;9.998;2023-10-08T02:41:41;3.70;;;3.40;;
1350;SDS011;669;50.206;9.998;2023-10-08T02:44:13;4.80;;;3.23;;
1350;SDS011;669;50.206;9.998;2023-10-08T02:46:41;4.90;;;3.80;;
1350;SDS011;669;50.206;9.998;2023-10-08T02:49:11;5.10;;;3.70;;
1350;SDS011;669;50.206;9.998;2023-10-08T02:51:39;4.70;;;3.20;;
1350;SDS011;669;50.206;9.998;2023-10-08T02:54:09;4.30;;;3.20;;
1350;SDS011;669;50.206;9.998;2023-10-08T02:56:43;5.20;;;3.40;;
1350;SDS011;669;50.206;9.998;2023-10-08T02:59:13;3.17;;;2.90;;
1350;SDS011;669;50.206;9.998;2023-10-08T03:01:42;8.40;;;3.63;;
1350;SDS011;669;50.206;9.998;2023-10-08T03:04:10;7.37;;;3.43;;
1350;SDS011;669;50.206;9.998;2023-10-08T03:06:45;10.00;;;3.30;;
1350;SDS011;669;50.206;9.998;2023-10-08T03:09:17;13.30;;;4.57;;
1350;SDS011;669;50.206;9.998;2023-10-08T03:11:50;6.37;;;4.10;;
1350;SDS011;669;50.206;9.998;2023-10-08T03:14:20;6.50;;;3.77;;
1350;SDS011;669;50.206;9.998;2023-10-08T03:16:49;8.10;;;4.00;;
1350;SDS011;669;50.206;9.998;2023-10-08T03:19:19;8.20;;;4.00;;
1350;SDS011;669;50.206;9.998;2023-10-08T03:21:49;9.23;;;3.97;;
1350;SDS011;669;50.206;9.998;2023-10-08T03:24:22;5.77;;;4.20;;
1350;SDS011;669;50.206;9.998;2023-10-08T03:27:03;6.17;;;4.20;;
1350;SDS011;669;50.206;9.998;2023-10-08T03:29:43;7.50;;;5.37;;
1350;SDS011;669;50.206;9.998;2023-10-08T03:32:12;4.60;;;3.67;;
1350;SDS011;669;50.206;9.998;2023-10-08T03:34:45;5.13;;;4.10;;
1350;SDS011;669;50.206;9.998;2023-10-08T03:37:15;7.40;;;4.83;;
1350;SDS011;669;50.206;9.998;2023-10-08T03:39:56;8.07;;;4.80;;
1350;SDS011;669;50.206;9.998;2023-10-08T03:42:47;5.10;;;4.23;;
1350;SDS011;669;50.206;9.998;2023-10-08T03:45:17;5.17;;;3.93;;
1350;SDS011;669;50.206;9.998;2023-10-08T03:47:58;5.07;;;3.77;;
1350;SDS011;669;50.206;9.998;2023-10-08T03:50:32;7.10;;;4.50;;
1350;SDS011;669;50.206;9.998;2023-10-08T03:53:07;7.37;;;4.00;;
1350;SDS011;669;50.206;9.998;2023-10-08T03:55:38;7.80;;;4.60;;
1350;SDS011;669;50.206;9.998;2023-10-08T03:58:07;4.67;;;3.60;;
1350;SDS011;669;50.206;9.998;2023-10-08T04:00:45;5.37;;;3.43;;
1350;SDS011;669;50.206;9.998;2023-10-08T04:03:13;5.67;;;3.67;;
1350;SDS011;669;50.206;9.998;2023-10-08T04:05:50;5.17;;;4.07;;
1350;SDS011;669;50.206;9.998;2023-10-08T04:08:32;7.03;;;4.27;;
1350;SDS011;669;50.206;9.998;2023-10-08T04:11:14;6.03;;;3.90;;
1350;SDS011;669;50.206;9.998;2023-10-08T04:13:57;6.10;;;4.73;;
1350;SDS011;669;50.206;9.998;2023-10-08T04:16:31;8.10;;;5.33;;
1350;SDS011;669;50.206;9.998;2023-10-08T04:19:03;8.57;;;5.53;;
1350;SDS011;669;50.206;9.998;2023-10-08T04:21:31;6.80;;;4.53;;
1350;SDS011;669;50.206;9.998;2023-10-08T04:24:00;4.73;;;4.10;;
1350;SDS011;669;50.206;9.998;2023-10-08T04:26:34;6.83;;;4.63;;
1350;SDS011;669;50.206;9.998;2023-10-08T04:29:04;3.27;;;2.83;;
1350;SDS011;669;50.206;9.998;2023-10-08T04:31:34;5.33;;;3.77;;
1350;SDS011;669;50.206;9.998;2023-10-08T04:34:10;5.67;;;3.40;;
1350;SDS011;669;50.206;9.998;2023-10-08T04:36:42;5.20;;;3.13;;
1350;SDS011;669;50.206;9.998;2023-10-08T04:39:11;5.80;;;4.07;;
1350;SDS011;669;50.206;9.998;2023-10-08T04:41:42;4.17;;;3.77;;
1350;SDS011;669;50.206;9.998;2023-10-08T04:44:10;6.53;;;3.87;;
1350;SDS011;669;50.206;9.998;2023-10-08T04:46:42;6.73;;;4.40;;
1350;SDS011;669;50.206;9.998;2023-10-08T04:49:18;6.33;;;4.07;;
1350;SDS011;669;50.206;9.998;2023-10-08T04:51:54;4.80;;;3.57;;
1350;SDS011;669;50.206;9.998;2023-10-08T04:54:24;8.20;;;5.13;;
1350;SDS011;669;50.206;9.998;2023-10-08T04:56:57;5.77;;;4.27;;
1350;SDS011;669;50.206;9.998;2023-10-08T04:59:26;7.77;;;4.80;;
1350;SDS011;669;50.206;9.998;2023-10-08T05:02:02;6.57;;;4.10;;
1350;SDS011;669;50.206;9.998;2023-10-08T05:04:46;7.83;;;4.47;;
1350;SDS011;669;50.206;9.998;2023-10-08T05:07:44;7.23;;;4.50;;
1350;SDS011;669;50.206;9.998;2023-10-08T05:10:54;7.23;;;3.77;;
1350;SDS011;669;50.206;9.998;2023-10-08T05:13:41;4.20;;;3.60;;
1350;SDS011;669;50.206;9.998;2023-10-08T05:16:22;5.30;;;3.30;;
1350;SDS011;669;50.206;9.998;2023-10-08T05:19:10;3.53;;;3.13;;
1350;SDS011;669;50.206;9.998;2023-10-08T05:22:04;7.53;;;4.33;;
1350;SDS011;669;50.206;9.998;2023-10-08T05:24:44;4.50;;;3.33;;
1350;SDS011;669;50.206;9.998;2023-10-08T05:27:33;4.83;;;3.37;;
1350;SDS011;669;50.206;9.998;2023-10-08T05:30:05;3.33;;;2.70;;
1350;SDS011;669;50.206;9.998;2023-10-08T05:32:43;5.10;;;2.77;;
1350;SDS011;669;50.206;9.998;2023-10-08T05:35:34;3.47;;;3.13;;
1350;SDS011;669;50.206;9.998;2023-10-08T05:38:29;5.60;;;3.37;;
1350;SDS011;669;50.206;9.998;2023-10-08T05:41:16;6.57;;;3.80;;
1350;SDS011;669;50.206;9.998;2023-10-08T05:44:05;3.43;;;3.10;;
1350;SDS011;669;50.206;9.998;2023-10-08T05:46:51;3.40;;;2.90;;
1350;SDS011;669;50.206;9.998;2023-10-08T05:49:33;8.03;;;3.57;;
1350;SDS011;669;50.206;9.998;2023-10-08T05:52:21;6.93;;;3.77;;
1350;SDS011;669;50.206;9.998;2023-10-08T05:55:17;9.27;;;3.90;;
1350;SDS011;669;50.206;9.998;2023-10-08T05:57:52;9.47;;;4.40;;
1350;SDS011;669;50.206;9.998;2023-10-08T06:00:39;6.70;;;4.50;;
1350;SDS011;669;50.206;9.998;2023-10-08T06:03:31;6.47;;;3.80;;
1350;SDS011;669;50.206;9.998;2023-10-08T06:06:02;6.50;;;4.23;;
1350;SDS011;669;50.206;9.998;2023-10-08T06:09:00;5.80;;;3.70;;
1350;SDS011;669;50.206;9.998;2023-10-08T06:11:47;4.90;;;4.00;;
1350;SDS011;669;50.206;9.998;2023-10-08T06:14:34;7.80;;;4.03;;
1350;SDS011;669;50.206;9.998;2023-10-08T06:17:35;5.93;;;4.17;;
1350;SDS011;669;50.206;9.998;2023-10-08T06:20:24;6.63;;;3.57;;
1350;SDS011;669;50.206;9.998;2023-10-08T06:22:53;7.77;;;4.27;;
1350;SDS011;669;50.206;9.998;2023-10-08T06:25:29;8.37;;;5.70;;
1350;SDS011;669;50.206;9.998;2023-10-08T06:27:57;6.37;;;3.90;;
1350;SDS011;669;50.206;9.998;2023-10-08T06:30:25;5.53;;;4.37;;
1350;SDS011;669;50.206;9.998;2023-10-08T06:32:56;5.67;;;4.00;;
1350;SDS011;669;50.206;9.998;2023-10-08T06:35:24;6.00;;;4.20;;
1350;SDS011;669;50.206;9.998;2023-10-08T06:37:54;4.47;;;2.90;;
1350;SDS011;669;50.206;9.998;2023-10-08T06:40:25;5.67;;;3.50;;
1350;SDS011;669;50.206;9.998;2023-10-08T06:43:10;5.47;;;3.77;;
1350;SDS011;669;50.206;9.998;2023-10-08T06:45:39;8.23;;;3.87;;
1350;SDS011;669;50.206;9.998;2023-10-08T06:48:07;6.40;;;3.93;;
1350;SDS011;669;50.206;9.998;2023-10-08T06:50:36;5.40;;;3.60;;
1350;SDS011;669;50.206;9.998;2023-10-08T06:53:04;5.53;;;3.77;;
1350;SDS011;669;50.206;9.998;2023-10-08T06:55:34;5.47;;;4.17;;
1350;SDS011;669;50.206;9.998;2023-10-08T06:58:02;4.50;;;3.67;;
1350;SDS011;669;50.206;9.998;2023-10-08T07:00:35;7.27;;;4.80;;
1350;SDS011;669;50.206;9.998;2023-10-08T07:03:12;6.77;;;4.80;;
1350;SDS011;669;50.206;9.998;2023-10-08T07:05:43;7.07;;;5.20;;
1350;SDS011;669;50.206;9.998;2023-10-08T07:08:21;7.90;;;6.03;;
1350;SDS011;669;50.206;9.998;2023-10-08T07:10:50;4.77;;;4.23;;
1350;SDS011;669;50.206;9.998;2023-10-08T07:13:19;6.27;;;3.90;;
1350;SDS011;669;50.206;9.998;2023-10-08T07:15:50;7.23;;;4.93;;
1350;SDS011;669;50.206;9.998;2023-10-08T07:18:19;8.50;;;4.13;;
1350;SDS011;669;50.206;9.998;2023-10-08T07:20:52;6.43;;;4.60;;
1350;SDS011;669;50.206;9.998;2023-10-08T07:23:22;6.33;;;4.40;;
1350;SDS011;669;50.206;9.998;2023-10-08T07:25:53;6.47;;;4.60;;
1350;SDS011;669;50.206;9.998;2023-10-08T07:28:26;7.23;;;4.07;;
1350;SDS011;669;50.206;9.998;2023-10-08T07:30:57;6.57;;;4.37;;
1350;SDS011;669;50.206;9.998;2023-10-08T07:33:25;5.90;;;4.13;;
1350;SDS011;669;50.206;9.998;2023-10-08T07:36:03;8.00;;;4.83;;
1350;SDS011;669;50.206;9.998;2023-10-08T07:38:40;5.10;;;4.03;;
1350;SDS011;669;50.206;9.998;2023-10-08T07:41:09;10.33;;;4.17;;
1350;SDS011;669;50.206;9.998;2023-10-08T07:43:39;5.20;;;3.90;;
1350;SDS011;669;50.206;9.998;2023-10-08T07:46:09;10.30;;;4.30;;
1350;SDS011;669;50.206;9.998;2023-10-08T07:48:37;6.60;;;4.30;;
1350;SDS011;669;50.206;9.998;2023-10-08T07:51:09;5.93;;;4.47;;
1350;SDS011;669;50.206;9.998;2023-10-08T07:53:37;4.73;;;3.60;;
1350;SDS011;669;50.206;9.998;2023-10-08T07:56:05;5.13;;;4.03;;
1350;SDS011;669;50.206;9.998;2023-10-08T07:58:37;5.33;;;4.00;;
1350;SDS011;669;50.206;9.998;2023-10-08T08:01:05;6.83;;;4.40;;
1350;SDS011;669;50.206;9.998;2023-10-08T08:03:36;6.03;;;3.63;;
1350;SDS011;669;50.206;9.998;2023-10-08T08:06:04;10.00;;;4.53;;
1350;SDS011;669;50.206;9.998;2023-10-08T08:08:33;5.60;;;4.43;;
1350;SDS011;669;50.206;9.998;2023-10-08T08:11:02;8.50;;;5.20;;
1350;SDS011;669;50.206;9.998;2023-10-08T08:13:38;6.50;;;3.97;;
1350;SDS011;669;50.206;9.998;2023-10-08T08:16:08;8.97;;;4.60;;
1350;SDS011;669;50.206;9.998;2023-10-08T08:18:45;9.17;;;4.63;;
1350;SDS011;669;50.206;9.998;2023-10-08T08:21:15;8.50;;;5.90;;
1350;SDS011;669;50.206;9.998;2023-10-08T08:23:46;8.70;;;6.23;;
1350;SDS011;669;50.206;9.998;2023-10-08T08:26:15;7.57;;;4.20;;
1350;SDS011;669;50.206;9.998;2023-10-08T08:28:54;6.53;;;5.43;;
1350;SDS011;669;50.206;9.998;2023-10-08T08:31:23;8.40;;;5.23;;
1350;SDS011;669;50.206;9.998;2023-10-08T08:33:53;6.40;;;5.50;;
1350;SDS011;669;50.206;9.998;2023-10-08T08:36:26;7.97;;;5.33;;
1350;SDS011;669;50.206;9.998;2023-10-08T08:38:55;9.20;;;6.03;;
1350;SDS011;669;50.206;9.998;2023-10-08T08:41:23;11.43;;;6.20;;
1350;SDS011;669;50.206;9.998;2023-10-08T08:43:52;8.50;;;4.67;;
1350;SDS011;669;50.206;9.998;2023-10-08T08:46:27;10.33;;;5.23;;
1350;SDS011;669;50.206;9.998;2023-10-08T08:49:00;5.60;;;4.97;;
1350;SDS011;669;50.206;9.998;2023-10-08T08:51:30;10.07;;;4.90;;
1350;SDS011;669;50.206;9.998;2023-10-08T08:53:59;8.37;;;5.40;;
1350;SDS011;669;50.206;9.998;2023-10-08T08:56:32;8.97;;;5.90;;
1350;SDS011;669;50.206;9.998;2023-10-08T08:59:01;9.20;;;4.70;;
1350;SDS011;669;50.206;9.998;2023-10-08T09:01:30;15.43;;;7.30;;
1350;SDS011;669;50.206;9.998;2023-10-08T09:04:01;14.83;;;7.43;;
1350;SDS011;669;50.206;9.998;2023-10-08T09:06:32;7.80;;;5.03;;
1350;SDS011;669;50.206;9.998;2023-10-08T09:09:01;13.70;;;5.40;;
1350;SDS011;669;50.206;9.998;2023-10-08T09:11:48;9.00;;;4.90;;
1350;SDS011;669;50.206;9.998;2023-10-08T09:14:19;10.57;;;5.73;;
1350;SDS011;669;50.206;9.998;2023-10-08T09:16:49;8.93;;;5.90;;
1350;SDS011;669;50.206;9.998;2023-10-08T09:19:18;9.63;;;5.10;;
1350;SDS011;669;50.206;9.998;2023-10-08T09:21:59;5.90;;;4.60;;
1350;SDS011;669;50.206;9.998;2023-10-08T09:24:29;6.50;;;4.77;;
1350;SDS011;669;50.206;9.998;2023-10-08T09:26:59;5.10;;;3.60;;
1350;SDS011;669;50.206;9.998;2023-10-08T09:29:28;6.10;;;4.50;;
1350;SDS011;669;50.206;9.998;2023-10-08T09:31:57;6.20;;;4.20;;
1350;SDS011;669;50.206;9.998;2023-10-08T09:34:28;15.00;;;5.63;;
1350;SDS011;669;50.206;9.998;2023-10-08T09:36:56;7.40;;;4.40;;
1350;SDS011;669;50.206;9.998;2023-10-08T09:39:26;6.97;;;4.47;;
1350;SDS011;669;50.206;9.998;2023-10-08T09:41:57;11.90;;;6.13;;
1350;SDS011;669;50.206;9.998;2023-10-08T09:44:25;9.33;;;4.63;;
1350;SDS011;669;50.206;9.998;2023-10-08T09:46:53;10.10;;;5.23;;
1350;SDS011;669;50.206;9.998;2023-10-08T09:49:32;10.30;;;5.53;;
1350;SDS011;669;50.206;9.998;2023-10-08T09:52:05;8.07;;;5.33;;
1350;SDS011;669;50.206;9.998;2023-10-08T09:54:36;6.17;;;4.73;;
1350;SDS011;669;50.206;9.998;2023-10-08T09:57:10;9.27;;;5.53;;
1350;SDS011;669;50.206;9.998;2023-10-08T09:59:39;8.93;;;4.47;;
1350;SDS011;669;50.206;9.998;2023-10-08T10:02:08;5.97;;;3.93;;
1350;SDS011;669;50.206;9.998;2023-10-08T10:04:42;9.97;;;6.13;;
1350;SDS011;669;50.206;9.998;2023-10-08T10:07:12;8.07;;;5.77;;
1350;SDS011;669;50.206;9.998;2023-10-08T10:09:43;10.77;;;6.17;;
1350;SDS011;669;50.206;9.998;2023-10-08T10:12:17;6.67;;;5.50;;
1350;SDS011;669;50.206;9.998;2023-10-08T10:14:52;7.73;;;5.17;;
1350;SDS011;669;50.206;9.998;2023-10-08T10:17:22;12.40;;;6.17;;
1350;SDS011;669;50.206;9.998;2023-10-08T10:20:11;9.80;;;4.87;;
1350;SDS011;669;50.206;9.998;2023-10-08T10:22:42;11.10;;;6.30;;
1350;SDS011;669;50.206;9.998;2023-10-08T10:25:11;8.50;;;4.20;;
1350;SDS011;669;50.206;9.998;2023-10-08T10:30:47;19.50;;;7.57;;
1350;SDS011;669;50.206;9.998;2023-10-08T10:33:15;6.60;;;4.60;;
1350;SDS011;669;50.206;9.998;2023-10-08T10:35:50;8.50;;;5.20;;
1350;SDS011;669;50.206;9.998;2023-10-08T10:38:19;8.23;;;5.37;;
1350;SDS011;669;50.206;9.998;2023-10-08T10:40:48;5.80;;;4.63;;
1350;SDS011;669;50.206;9.998;2023-10-08T10:43:23;4.93;;;4.43;;
1350;SDS011;669;50.206;9.998;2023-10-08T10:45:59;7.67;;;4.73;;
1350;SDS011;669;50.206;9.998;2023-10-08T10:48:46;6.03;;;5.03;;
1350;SDS011;669;50.206;9.998;2023-10-08T10:51:25;8.13;;;5.13;;
1350;SDS011;669;50.206;9.998;2023-10-08T10:53:52;9.40;;;5.90;;
1350;SDS011;669;50.206;9.998;2023-10-08T10:56:27;11.97;;;5.97;;
1350;SDS011;669;50.206;9.998;2023-10-08T10:58:58;5.30;;;4.80;;
1350;SDS011;669;50.206;9.998;2023-10-08T11:01:28;10.70;;;5.00;;
1350;SDS011;669;50.206;9.998;2023-10-08T11:03:56;8.87;;;5.87;;
1350;SDS011;669;50.206;9.998;2023-10-08T11:06:26;6.13;;;5.53;;
1350;SDS011;669;50.206;9.998;2023-10-08T11:08:55;8.20;;;5.50;;
1350;SDS011;669;50.206;9.998;2023-10-08T11:11:25;8.10;;;5.33;;
1350;SDS011;669;50.206;9.998;2023-10-08T11:13:56;8.13;;;5.23;;
1350;SDS011;669;50.206;9.998;2023-10-08T11:16:27;6.57;;;4.60;;
1350;SDS011;669;50.206;9.998;2023-10-08T11:18:58;8.40;;;5.97;;
1350;SDS011;669;50.206;9.998;2023-10-08T11:21:37;5.77;;;4.93;;
1350;SDS011;669;50.206;9.998;2023-10-08T11:24:27;8.30;;;5.03;;
1350;SDS011;669;50.206;9.998;2023-10-08T11:26:56;7.23;;;5.43;;
1350;SDS011;669;50.206;9.998;2023-10-08T11:29:42;9.87;;;5.40;;
1350;SDS011;669;50.206;9.998;2023-10-08T11:32:11;14.20;;;6.60;;
1350;SDS011;669;50.206;9.998;2023-10-08T11:34:42;8.17;;;5.20;;
1350;SDS011;669;50.206;9.998;2023-10-08T11:37:12;7.60;;;4.70;;
1350;SDS011;669;50.206;9.998;2023-10-08T11:39:47;4.13;;;3.00;;
1350;SDS011;669;50.206;9.998;2023-10-08T11:42:15;5.73;;;3.23;;
1350;SDS011;669;50.206;9.998;2023-10-08T11:45:01;5.17;;;3.27;;
1350;SDS011;669;50.206;9.998;2023-10-08T11:47:44;5.63;;;3.20;;
1350;SDS011;669;50.206;9.998;2023-10-08T11:50:15;5.00;;;2.23;;
1350;SDS011;669;50.206;9.998;2023-10-08T11:52:47;3.70;;;2.17;;
1350;SDS011;669;50.206;9.998;2023-10-08T11:55:16;4.33;;;2.50;;
1350;SDS011;669;50.206;9.998;2023-10-08T11:57:46;3.17;;;2.20;;
1350;SDS011;669;50.206;9.998;2023-10-08T12:00:15;5.00;;;2.00;;
1350;SDS011;669;50.206;9.998;2023-10-08T12:02:58;2.43;;;1.77;;
1350;SDS011;669;50.206;9.998;2023-10-08T12:05:28;3.93;;;2.20;;
1350;SDS011;669;50.206;9.998;2023-10-08T12:08:00;1.97;;;1.87;;
1350;SDS011;669;50.206;9.998;2023-10-08T12:10:28;4.60;;;1.53;;
1350;SDS011;669;50.206;9.998;2023-10-08T12:13:00;1.23;;;1.13;;
1350;SDS011;669;50.206;9.998;2023-10-08T12:15:32;3.13;;;1.40;;
1350;SDS011;669;50.206;9.998;2023-10-08T12:18:05;1.70;;;1.00;;
1350;SDS011;669;50.206;9.998;2023-10-08T12:20:40;5.43;;;1.60;;
1350;SDS011;669;50.206;9.998;2023-10-08T12:23:11;2.60;;;1.10;;
1350;SDS011;669;50.206;9.998;2023-10-08T12:25:49;3.63;;;1.30;;
1350;SDS011;669;50.206;9.998;2023-10-08T12:28:19;1.70;;;1.20;;
1350;SDS011;669;50.206;9.998;2023-10-08T12:30:48;3.10;;;1.07;;
1350;SDS011;669;50.206;9.998;2023-10-08T12:33:18;4.20;;;1.17;;
1350;SDS011;669;50.206;9.998;2023-10-08T12:35:47;1.00;;;0.67;;
1350;SDS011;669;50.206;9.998;2023-10-08T12:38:16;1.20;;;0.90;;
1350;SDS011;669;50.206;9.998;2023-10-08T12:40:47;1.43;;;0.87;;
1350;SDS011;669;50.206;9.998;2023-10-08T12:43:19;1.63;;;1.53;;
1350;SDS011;669;50.206;9.998;2023-10-08T12:45:47;2.73;;;0.70;;
1350;SDS011;669;50.206;9.998;2023-10-08T12:48:19;0.90;;;0.90;;
1350;SDS011;669;50.206;9.998;2023-10-08T12:50:48;0.40;;;0.40;;
1350;SDS011;669;50.206;9.998;2023-10-08T12:53:25;1.63;;;0.90;;
1350;SDS011;669;50.206;9.998;2023-10-08T12:56:01;1.83;;;0.60;;
1350;SDS011;669;50.206;9.998;2023-10-08T12:58:33;1.07;;;1.07;;
1350;SDS011;669;50.206;9.998;2023-10-08T13:01:07;0.80;;;0.80;;
1350;SDS011;669;50.206;9.998;2023-10-08T13:03:36;1.10;;;1.00;;
1350;SDS011;669;50.206;9.998;2023-10-08T13:06:08;3.20;;;0.77;;
1350;SDS011;669;50.206;9.998;2023-10-08T13:08:42;0.80;;;0.80;;
1350;SDS011;669;50.206;9.998;2023-10-08T13:11:10;0.63;;;0.40;;
1350;SDS011;669;50.206;9.998;2023-10-08T13:13:38;0.60;;;0.60;;
1350;SDS011;669;50.206;9.998;2023-10-08T13:16:07;0.83;;;0.73;;
1350;SDS011;669;50.206;9.998;2023-10-08T13:18:35;0.77;;;0.53;;
1350;SDS011;669;50.206;9.998;2023-10-08T13:21:04;0.50;;;0.50;;
1350;SDS011;669;50.206;9.998;2023-10-08T13:23:33;0.47;;;0.47;;
1350;SDS011;669;50.206;9.998;2023-10-08T13:26:03;0.67;;;0.40;;
1350;SDS011;669;50.206;9.998;2023-10-08T13:28:33;0.73;;;0.60;;
1350;SDS011;669;50.206;9.998;2023-10-08T13:31:02;0.70;;;0.60;;
1350;SDS011;669;50.206;9.998;2023-10-08T13:33:36;0.43;;;0.40;;
1350;SDS011;669;50.206;9.998;2023-10-08T13:36:06;0.63;;;0.53;;
1350;SDS011;669;50.206;9.998;2023-10-08T13:38:44;0.87;;;0.60;;
1350;SDS011;669;50.206;9.998;2023-10-08T13:41:15;0.43;;;0.43;;
1350;SDS011;669;50.206;9.998;2023-10-08T13:43:44;0.40;;;0.40;;
1350;SDS011;669;50.206;9.998;2023-10-08T13:46:14;0.47;;;0.47;;
1350;SDS011;669;50.206;9.998;2023-10-08T13:48:44;1.13;;;0.80;;
1350;SDS011;669;50.206;9.998;2023-10-08T13:51:15;0.57;;;0.53;;
1350;SDS011;669;50.206;9.998;2023-10-08T13:53:50;0.50;;;0.50;;
1350;SDS011;669;50.206;9.998;2023-10-08T13:56:27;0.47;;;0.47;;
1350;SDS011;669;50.206;9.998;2023-10-08T13:58:58;0.57;;;0.57;;
1350;SDS011;669;50.206;9.998;2023-10-08T14:01:32;0.40;;;0.40;;
1350;SDS011;669;50.206;9.998;2023-10-08T14:04:01;0.67;;;0.63;;
1350;SDS011;669;50.206;9.998;2023-10-08T14:06:33;0.47;;;0.47;;
1350;SDS011;669;50.206;9.998;2023-10-08T14:09:02;0.90;;;0.90;;
1350;SDS011;669;50.206;9.998;2023-10-08T14:11:35;0.40;;;0.40;;
1350;SDS011;669;50.206;9.998;2023-10-08T14:14:03;0.30;;;0.30;;
1350;SDS011;669;50.206;9.998;2023-10-08T14:16:38;0.60;;;0.40;;
1350;SDS011;669;50.206;9.998;2023-10-08T14:19:08;0.60;;;0.50;;
1350;SDS011;669;50.206;9.998;2023-10-08T14:21:39;2.73;;;0.50;;
1350;SDS011;669;50.206;9.998;2023-10-08T14:24:16;0.40;;;0.40;;
1350;SDS011;669;50.206;9.998;2023-10-08T14:26:45;1.13;;;0.50;;
1350;SDS011;669;50.206;9.998;2023-10-08T14:29:19;0.40;;;0.40;;
1350;SDS011;669;50.206;9.998;2023-10-08T14:31:51;1.93;;;0.73;;
1350;SDS011;669;50.206;9.998;2023-10-08T14:34:23;0.50;;;0.50;;
1350;SDS011;669;50.206;9.998;2023-10-08T14:37:16;0.80;;;0.40;;
1350;SDS011;669;50.206;9.998;2023-10-08T14:40:02;0.60;;;0.60;;
1350;SDS011;669;50.206;9.998;2023-10-08T14:42:49;1.13;;;0.50;;
1350;SDS011;669;50.206;9.998;2023-10-08T14:45:26;0.40;;;0.40;;
1350;SDS011;669;50.206;9.998;2023-10-08T14:47:57;1.17;;;0.60;;
1350;SDS011;669;50.206;9.998;2023-10-08T14:50:26;0.57;;;0.57;;
1350;SDS011;669;50.206;9.998;2023-10-08T14:52:59;1.53;;;0.70;;
1350;SDS011;669;50.206;9.998;2023-10-08T14:55:31;0.70;;;0.70;;
1350;SDS011;669;50.206;9.998;2023-10-08T14:58:03;0.47;;;0.47;;
1350;SDS011;669;50.206;9.998;2023-10-08T15:00:34;0.80;;;0.50;;
1350;SDS011;669;50.206;9.998;2023-10-08T15:03:03;2.60;;;1.13;;
1350;SDS011;669;50.206;9.998;2023-10-08T15:05:32;0.40;;;0.40;;
1350;SDS011;669;50.206;9.998;2023-10-08T15:08:04;0.70;;;0.70;;
1350;SDS011;669;50.206;9.998;2023-10-08T15:10:36;1.07;;;0.40;;
1350;SDS011;669;50.206;9.998;2023-10-08T15:13:06;0.43;;;0.43;;
1350;SDS011;669;50.206;9.998;2023-10-08T15:15:34;1.73;;;0.60;;
1350;SDS011;669;50.206;9.998;2023-10-08T15:18:02;0.50;;;0.50;;
1350;SDS011;669;50.206;9.998;2023-10-08T15:20:32;0.53;;;0.53;;
1350;SDS011;669;50.206;9.998;2023-10-08T15:23:01;1.60;;;0.70;;
1350;SDS011;669;50.206;9.998;2023-10-08T15:25:31;2.00;;;0.97;;
1350;SDS011;669;50.206;9.998;2023-10-08T15:27:59;2.93;;;0.83;;
1350;SDS011;669;50.206;9.998;2023-10-08T15:30:29;1.57;;;0.50;;
1350;SDS011;669;50.206;9.998;2023-10-08T15:32:58;0.73;;;0.70;;
1350;SDS011;669;50.206;9.998;2023-10-08T15:35:27;0.50;;;0.50;;
1350;SDS011;669;50.206;9.998;2023-10-08T15:37:55;0.83;;;0.57;;
1350;SDS011;669;50.206;9.998;2023-10-08T15:40:23;0.60;;;0.60;;
1350;SDS011;669;50.206;9.998;2023-10-08T15:42:51;0.53;;;0.53;;
1350;SDS011;669;50.206;9.998;2023-10-08T15:45:21;0.80;;;0.80;;
1350;SDS011;669;50.206;9.998;2023-10-08T15:47:52;1.40;;;0.57;;
1350;SDS011;669;50.206;9.998;2023-10-08T15:50:21;0.63;;;0.63;;
1350;SDS011;669;50.206;9.998;2023-10-08T15:52:52;1.17;;;0.60;;
1350;SDS011;669;50.206;9.998;2023-10-08T15:55:22;0.50;;;0.50;;
1350;SDS011;669;50.206;9.998;2023-10-08T15:57:52;0.60;;;0.60;;
1350;SDS011;669;50.206;9.998;2023-10-08T16:00:20;0.80;;;0.80;;
1350;SDS011;669;50.206;9.998;2023-10-08T16:02:49;1.20;;;0.63;;
1350;SDS011;669;50.206;9.998;2023-10-08T16:05:18;0.60;;;0.60;;
1350;SDS011;669;50.206;9.998;2023-10-08T16:07:46;0.53;;;0.50;;